Murphy's Hourly Summary for Monday, April 17, 2017
Hour Temp
(f)
RH
(%)
Solar Rad.
(MJ/m2)
Rainfall
(in)
Wind
(mph)
4/17/2017 12:00 AM 71 81 0 0 0.06
4/17/2017 1:00 AM 70 83 0 0 0.27
4/17/2017 2:00 AM 70 82 0 0 2.3
4/17/2017 3:00 AM 71 84 0 0 2.5
4/17/2017 4:00 AM 70 83 0 0 1.54
4/17/2017 5:00 AM 68 92 0 0 1.11
4/17/2017 6:00 AM 68 93 0 0 2.02
4/17/2017 7:00 AM 68 93 0 0 1.81
4/17/2017 8:00 AM 67 92 0.07 0 3.3
4/17/2017 9:00 AM 67 91 0.24 0 3.19
4/17/2017 10:00 AM 68 89 0.4 0 2.02
4/17/2017 11:00 AM 69 88 0.36 0 2.23
4/17/2017 12:00 PM 68 86 0.47 0.01 3.94
4/17/2017 1:00 PM 65 89 0.37 0.07 5.67
4/17/2017 2:00 PM 66 84 0.55 0 2.55
4/17/2017 3:00 PM 66 84 0.3 0.01 1.81
4/17/2017 4:00 PM 64 90 0.06 0.14 0.55
4/17/2017 5:00 PM 63 93 0.11 0.14 0.12
4/17/2017 6:00 PM 63 95 0.1 0.06 0.88
4/17/2017 7:00 PM 63 82 0.04 0.05 2.98
4/17/2017 8:00 PM 64 77 0.03 0.01 2.51
4/17/2017 9:00 PM 63 87 0 0 0.38
4/17/2017 10:00 PM 62 92 0 0 0.87
4/17/2017 11:00 PM 63 94 0 0 1.72
Data Summary 66 87 3.10 0.49 1.93